Time;durP1;ratioP1;P1;durP2;ratioP2;P2;SDS_P1;SDS_P2;PMS_P1;PMS_P2;Temp;Humidity;BMP_temperature;BMP_pressure;BME280_temperature;BME280_humidity;BME280_pressure;Samples;Min_cycle;Max_cycle;Signal;HPM_P1;HPM_P2
2023/07/08 00:00:48;;;;;;;4.25;3.83;;;;;;;20.33;56.06;101425.22;5031332;28;20028;-68
2023/07/08 00:03:14;;;;;;;5.20;3.85;;;;;;;20.32;56.15;101424.38;5043162;28;20428;-70
2023/07/08 00:05:40;;;;;;;4.15;3.72;;;;;;;20.28;56.03;101422.91;5036624;28;20117;-70
2023/07/08 00:08:17;;;;;;;5.55;4.22;;;;;;;20.27;55.92;101425.72;5040509;28;20036;-69
2023/07/08 00:10:43;;;;;;;3.78;3.40;;;;;;;20.17;56.75;101414.81;5029312;28;20108;-69
2023/07/08 00:13:09;;;;;;;5.85;3.38;;;;;;;20.17;56.58;101425.63;5030523;28;20451;-71
2023/07/08 00:15:36;;;;;;;4.70;3.75;;;;;;;20.09;57.78;101415.44;5025406;28;20032;-71
2023/07/08 00:18:08;;;;;;;4.65;3.80;;;;;;;20.02;57.74;101413.34;5039167;28;20095;-71
2023/07/08 00:20:45;;;;;;;14.70;4.50;;;;;;;19.87;57.55;101416.34;5031148;28;20033;-72
2023/07/08 00:23:11;;;;;;;6.00;3.83;;;;;;;19.98;58.45;101406.50;5041852;28;20029;-72
2023/07/08 00:25:37;;;;;;;4.50;3.78;;;;;;;19.93;58.54;101406.00;5035553;28;20148;-68
2023/07/08 00:28:13;;;;;;;7.10;3.78;;;;;;;19.78;58.61;101405.44;5039898;28;20037;-72
2023/07/08 00:30:39;;;;;;;5.10;3.95;;;;;;;19.64;59.12;101409.22;5034946;28;20462;-71
2023/07/08 00:33:06;;;;;;;4.57;3.90;;;;;;;19.62;59.13;101401.25;5027719;28;20392;-67
2023/07/08 00:35:34;;;;;;;4.88;3.90;;;;;;;19.60;59.06;101405.88;5038043;28;20026;-67
2023/07/08 00:38:09;;;;;;;6.57;4.22;;;;;;;19.58;59.27;101397.03;5040111;28;20033;-70
2023/07/08 00:40:34;;;;;;;7.13;3.78;;;;;;;19.54;59.48;101402.81;5025360;28;20222;-70
2023/07/08 00:43:03;;;;;;;6.05;4.25;;;;;;;19.50;59.60;101399.50;5025179;28;20029;-67
2023/07/08 00:45:37;;;;;;;4.55;3.45;;;;;;;19.48;59.65;101397.88;5040910;28;20048;-71
2023/07/08 00:48:19;;;;;;;5.75;4.18;;;;;;;19.52;59.34;101397.56;5040607;28;20124;-68
2023/07/08 00:50:44;;;;;;;3.90;3.50;;;;;;;19.45;59.58;101385.50;5032647;28;20059;-71
2023/07/08 00:53:37;;;;;;;5.05;3.72;;;;;;;19.46;58.74;101389.91;5033479;28;20060;-71
2023/07/08 00:56:04;;;;;;;4.45;3.53;;;;;;;19.34;60.60;101390.88;5028834;28;20123;-67
2023/07/08 00:58:34;;;;;;;4.63;3.63;;;;;;;19.28;60.29;101388.69;5040127;28;20023;-70
2023/07/08 01:01:04;;;;;;;4.80;3.50;;;;;;;19.25;60.39;101389.78;5032515;28;20022;-67
2023/07/08 01:03:30;;;;;;;3.92;3.50;;;;;;;19.30;60.07;101392.13;5038715;28;20114;-71
2023/07/08 01:05:59;;;;;;;4.75;3.85;;;;;;;19.25;60.08;101392.47;5033200;28;20113;-68
2023/07/08 01:08:28;;;;;;;6.03;3.70;;;;;;;19.26;60.32;101390.63;5030926;28;20057;-71
2023/07/08 01:11:01;;;;;;;4.22;3.70;;;;;;;19.22;60.49;101397.25;5029064;28;20287;-70
2023/07/08 01:13:30;;;;;;;4.63;3.90;;;;;;;19.16;60.38;101395.91;5040734;28;20328;-70
2023/07/08 01:15:59;;;;;;;4.40;3.47;;;;;;;19.27;60.04;101395.94;5031738;28;20027;-67
2023/07/08 01:18:28;;;;;;;4.35;3.75;;;;;;;19.23;60.63;101394.44;5031362;28;20051;-69
2023/07/08 01:20:55;;;;;;;4.70;3.65;;;;;;;19.24;60.54;101396.16;5039795;28;20021;-69
2023/07/08 01:23:21;;;;;;;5.05;3.70;;;;;;;19.11;60.62;101388.19;5037323;28;20728;-71
2023/07/08 01:25:47;;;;;;;3.65;3.35;;;;;;;19.17;60.00;101395.78;5037131;28;20033;-70
2023/07/08 01:28:13;;;;;;;6.40;3.65;;;;;;;19.14;60.43;101395.16;5028727;28;20116;-70
2023/07/08 01:30:42;;;;;;;4.22;3.83;;;;;;;19.16;60.11;101388.66;5032893;28;20024;-71
2023/07/08 01:33:21;;;;;;;4.55;3.88;;;;;;;19.21;59.95;101380.22;5029123;28;20021;-69
2023/07/08 01:35:49;;;;;;;4.55;3.55;;;;;;;19.22;60.52;101384.63;5036638;28;20025;-69
2023/07/08 01:38:18;;;;;;;4.82;3.92;;;;;;;19.15;59.83;101395.06;5042766;28;20025;-66
2023/07/08 01:40:55;;;;;;;4.80;3.25;;;;;;;19.22;59.82;101381.06;5034713;28;20025;-68
2023/07/08 01:43:20;;;;;;;4.65;3.65;;;;;;;19.19;60.62;101376.78;5025242;28;20025;-70
2023/07/08 01:45:47;;;;;;;4.22;3.70;;;;;;;19.14;60.52;101385.25;5041606;28;20087;-67
2023/07/08 01:48:19;;;;;;;5.22;3.70;;;;;;;19.17;60.58;101384.97;5036663;28;20462;-67
2023/07/08 01:50:50;;;;;;;4.63;3.63;;;;;;;19.12;61.24;101389.03;5033362;28;20025;-71
2023/07/08 01:53:19;;;;;;;5.20;3.70;;;;;;;19.12;60.76;101380.94;5030242;28;20033;-69
2023/07/08 01:55:45;;;;;;;4.53;3.85;;;;;;;19.03;60.89;101354.69;5050319;28;20124;-67
2023/07/08 01:58:10;;;;;;;5.93;3.60;;;;;;;18.98;60.88;101367.66;5045387;28;20132;-70
2023/07/08 02:00:35;;;;;;;6.25;3.53;;;;;;;18.92;61.50;101371.69;5037612;28;20055;-69
2023/07/08 02:03:01;;;;;;;5.40;3.70;;;;;;;18.85;61.44;101368.63;5035792;28;20041;-68
2023/07/08 02:05:26;;;;;;;6.85;4.18;;;;;;;18.82;61.42;101366.16;5035766;28;20025;-69
2023/07/08 02:07:51;;;;;;;5.68;3.75;;;;;;;18.87;61.71;101360.41;5024342;28;20418;-71
2023/07/08 02:10:17;;;;;;;4.70;4.10;;;;;;;18.77;61.65;101356.69;5040791;28;20120;-66
2023/07/08 02:12:42;;;;;;;7.97;4.03;;;;;;;18.77;61.54;101349.47;5032779;28;20028;-69
2023/07/08 02:15:09;;;;;;;8.15;3.92;;;;;;;18.70;61.88;101360.84;5032812;28;20116;-68
2023/07/08 02:17:35;;;;;;;5.38;3.83;;;;;;;18.69;61.93;101346.47;5034335;28;20126;-70
2023/07/08 02:20:00;;;;;;;6.10;3.80;;;;;;;18.61;62.39;101344.38;5035615;28;20060;-68
2023/07/08 02:22:29;;;;;;;4.63;3.70;;;;;;;18.59;62.38;101348.16;5023702;28;20021;-67
2023/07/08 02:24:54;;;;;;;3.92;3.53;;;;;;;18.56;62.40;101343.88;5028214;28;20043;-71
2023/07/08 02:27:19;;;;;;;6.25;4.07;;;;;;;18.52;62.78;101341.50;5038010;28;20028;-66
2023/07/08 02:29:45;;;;;;;5.53;4.15;;;;;;;18.53;62.99;101343.25;5035555;28;20059;-70
2023/07/08 02:32:10;;;;;;;6.53;4.00;;;;;;;18.53;63.37;101333.31;5034705;28;20164;-69
2023/07/08 02:34:36;;;;;;;5.03;3.50;;;;;;;18.39;63.85;101326.28;5036980;28;20433;-67
2023/07/08 02:37:02;;;;;;;4.93;3.55;;;;;;;18.39;63.61;101320.00;5038841;28;20060;-70
2023/07/08 02:39:27;;;;;;;7.65;4.00;;;;;;;18.31;64.16;101326.00;5039069;28;20110;-67
2023/07/08 02:41:53;;;;;;;4.72;4.03;;;;;;;18.35;64.11;101316.72;5035679;28;20032;-68
2023/07/08 02:44:18;;;;;;;4.60;3.55;;;;;;;18.32;64.03;101316.94;5029018;28;20352;-71
2023/07/08 02:46:43;;;;;;;7.93;4.07;;;;;;;18.30;64.16;101324.28;5038381;28;20052;-66
2023/07/08 02:49:09;;;;;;;5.50;3.72;;;;;;;18.26;64.66;101321.94;5038195;28;20036;-70
2023/07/08 02:51:34;;;;;;;6.88;4.03;;;;;;;18.22;64.93;101326.69;5036609;28;20114;-71
2023/07/08 02:53:59;;;;;;;4.57;3.92;;;;;;;18.20;65.48;101327.78;5030594;28;20191;-70
2023/07/08 02:56:26;;;;;;;4.70;3.92;;;;;;;18.22;65.55;101323.13;5031584;28;20025;-71
2023/07/08 02:58:52;;;;;;;6.28;4.32;;;;;;;18.22;65.23;101333.91;5035214;28;20067;-67
2023/07/08 03:01:18;;;;;;;8.15;4.45;;;;;;;18.15;65.69;101337.06;5037532;28;20029;-71
2023/07/08 03:03:47;;;;;;;6.20;4.20;;;;;;;18.15;65.65;101336.22;5044150;28;20295;-68
2023/07/08 03:06:14;;;;;;;7.05;4.20;;;;;;;18.11;66.48;101334.72;5038680;28;20017;-71
2023/07/08 03:08:40;;;;;;;4.78;3.90;;;;;;;18.05;66.70;101338.72;5037226;28;20032;-69
2023/07/08 03:11:07;;;;;;;5.13;4.00;;;;;;;18.02;66.57;101346.19;5042300;28;20021;-72
2023/07/08 03:13:33;;;;;;;5.88;3.92;;;;;;;17.97;67.39;101340.25;5045250;28;20060;-70
2023/07/08 03:16:00;;;;;;;7.00;4.88;;;;;;;17.97;66.96;101345.66;5038349;28;20087;-70
2023/07/08 03:18:27;;;;;;;6.00;4.72;;;;;;;17.82;67.65;101345.81;5041664;28;20020;-71
2023/07/08 03:20:55;;;;;;;6.35;4.30;;;;;;;17.85;67.39;101351.00;5030610;28;20033;-66
2023/07/08 03:23:22;;;;;;;5.55;4.50;;;;;;;17.79;68.32;101351.44;5034888;28;20037;-67
2023/07/08 03:25:48;;;;;;;6.65;4.50;;;;;;;17.87;68.22;101351.72;5033264;28;20033;-67
2023/07/08 03:28:14;;;;;;;5.45;4.53;;;;;;;17.76;68.18;101346.25;5036022;28;20021;-71
2023/07/08 03:30:41;;;;;;;6.20;4.45;;;;;;;17.80;67.80;101350.44;5040414;28;20127;-68
2023/07/08 03:33:07;;;;;;;4.90;4.20;;;;;;;17.72;68.44;101346.56;5042537;28;20120;-70
2023/07/08 03:35:32;;;;;;;5.32;4.80;;;;;;;17.70;68.51;101349.38;5039366;28;20028;-70
2023/07/08 03:37:58;;;;;;;5.32;4.32;;;;;;;17.68;68.96;101354.88;5041289;28;20072;-67
2023/07/08 03:40:23;;;;;;;5.43;4.30;;;;;;;17.66;69.71;101351.44;5038916;28;20052;-67
2023/07/08 03:42:48;;;;;;;5.43;4.45;;;;;;;17.66;69.09;101354.13;5040833;28;20089;-71
2023/07/08 03:45:14;;;;;;;6.10;4.63;;;;;;;17.60;69.94;101349.19;5038268;28;20024;-67
2023/07/08 03:47:39;;;;;;;6.03;4.63;;;;;;;17.63;69.88;101340.00;5042242;28;20041;-69
2023/07/08 03:50:06;;;;;;;6.78;4.57;;;;;;;17.62;69.87;101341.84;5033767;28;20513;-70
2023/07/08 03:52:32;;;;;;;7.22;5.25;;;;;;;17.60;69.93;101345.66;5034193;28;20108;-69
2023/07/08 03:54:57;;;;;;;6.60;4.93;;;;;;;17.57;70.08;101344.03;5038335;28;20111;-66
2023/07/08 03:57:23;;;;;;;5.32;4.72;;;;;;;17.47;72.61;101358.25;5032799;28;20037;-67
2023/07/08 03:59:48;;;;;;;5.15;4.60;;;;;;;17.41;73.26;101359.53;5029905;28;20071;-72
2023/07/08 04:02:14;;;;;;;7.68;4.80;;;;;;;17.46;73.51;101362.75;5043631;28;20106;-69
2023/07/08 04:04:39;;;;;;;6.63;4.72;;;;;;;17.48;73.00;101359.97;5038675;28;20134;-69
2023/07/08 04:07:05;;;;;;;5.80;4.97;;;;;;;17.47;73.05;101360.94;5054389;28;20025;-71
2023/07/08 04:09:31;;;;;;;6.70;4.90;;;;;;;17.58;72.05;101363.72;5037442;28;20030;-68
2023/07/08 04:11:58;;;;;;;6.00;4.90;;;;;;;17.55;71.13;101366.63;5039865;28;20087;-70
2023/07/08 04:14:23;;;;;;;6.88;4.82;;;;;;;17.65;71.52;101357.78;5036060;28;20679;-70
2023/07/08 04:16:58;;;;;;;9.13;5.05;;;;;;;17.66;70.92;101364.88;5040908;28;20047;-71
2023/07/08 04:19:26;;;;;;;6.68;5.13;;;;;;;17.63;70.67;101370.47;5027186;28;20036;-70
2023/07/08 04:21:52;;;;;;;5.40;4.82;;;;;;;17.59;71.09;101366.28;5040451;28;20147;-71
2023/07/08 04:24:18;;;;;;;6.35;5.20;;;;;;;17.56;71.54;101352.22;5026492;28;20043;-70
2023/07/08 04:26:46;;;;;;;5.57;5.00;;;;;;;17.50;71.39;101348.13;5036469;28;20057;-69
2023/07/08 04:29:19;;;;;;;6.90;5.53;;;;;;;17.61;71.37;101363.50;5036161;28;20606;-70
2023/07/08 04:31:45;;;;;;;5.50;5.00;;;;;;;17.58;71.44;101344.88;5034005;28;20538;-71
2023/07/08 04:34:11;;;;;;;7.88;5.15;;;;;;;17.64;71.72;101357.88;5025137;28;20028;-68
2023/07/08 04:36:37;;;;;;;7.32;5.03;;;;;;;17.64;71.24;101355.19;5031757;28;20028;-71
2023/07/08 04:39:04;;;;;;;5.45;4.85;;;;;;;17.56;71.64;101368.38;5036404;28;20029;-70
2023/07/08 04:41:30;;;;;;;6.30;5.00;;;;;;;17.59;71.60;101368.13;5027053;28;20025;-70
2023/07/08 04:43:57;;;;;;;7.30;5.60;;;;;;;17.68;71.03;101356.69;5027018;28;20029;-70
2023/07/08 04:46:34;;;;;;;6.15;4.88;;;;;;;17.75;71.10;101357.16;5037526;28;20052;-70
2023/07/08 04:49:01;;;;;;;7.40;5.25;;;;;;;17.82;71.27;101359.28;5034205;28;20095;-70
2023/07/08 04:51:27;;;;;;;8.23;4.95;;;;;;;17.85;71.17;101359.06;5039471;28;20017;-70
2023/07/08 04:53:53;;;;;;;6.93;5.38;;;;;;;17.84;70.67;101361.84;5033261;28;20040;-68
2023/07/08 04:56:18;;;;;;;6.88;5.25;;;;;;;17.86;71.13;101360.78;5036283;28;20653;-71
2023/07/08 04:58:44;;;;;;;7.57;5.68;;;;;;;18.01;70.94;101358.78;5030917;28;20056;-68
2023/07/08 05:01:10;;;;;;;6.28;4.90;;;;;;;18.05;70.78;101359.41;5036426;28;20033;-71
2023/07/08 05:03:35;;;;;;;7.93;5.20;;;;;;;18.08;70.55;101367.28;5029750;28;20504;-71
2023/07/08 05:06:00;;;;;;;5.93;5.32;;;;;;;18.22;70.24;101366.25;5032345;28;20372;-71
2023/07/08 05:08:26;;;;;;;5.75;5.18;;;;;;;18.31;69.96;101361.03;5037886;28;20037;-71
2023/07/08 05:10:51;;;;;;;6.45;5.13;;;;;;;18.44;68.64;101368.22;5037533;28;20098;-70
2023/07/08 05:13:16;;;;;;;6.88;5.22;;;;;;;18.53;68.02;101367.50;5037923;28;20430;-71
2023/07/08 05:15:42;;;;;;;7.82;5.82;;;;;;;18.47;68.98;101360.72;5039694;28;20060;-69
2023/07/08 05:18:07;;;;;;;6.30;4.88;;;;;;;18.47;69.13;101362.56;5034013;28;20468;-72
2023/07/08 05:20:34;;;;;;;8.10;5.22;;;;;;;18.39;68.87;101364.03;5042742;28;20415;-69
2023/07/08 05:23:00;;;;;;;8.77;5.05;;;;;;;18.43;69.51;101364.63;5041383;28;20032;-66
2023/07/08 05:25:25;;;;;;;7.05;5.32;;;;;;;18.39;69.62;101364.03;5028737;28;20471;-68
2023/07/08 05:27:50;;;;;;;6.13;5.20;;;;;;;18.44;69.30;101368.22;5030366;28;20519;-72
2023/07/08 05:30:18;;;;;;;6.72;5.40;;;;;;;18.43;69.10;101361.94;5038380;28;20026;-68
2023/07/08 05:32:43;;;;;;;6.97;5.35;;;;;;;18.56;69.58;101360.03;5039880;28;20163;-70
2023/07/08 05:35:09;;;;;;;7.40;5.65;;;;;;;18.63;68.83;101355.88;5029505;28;20055;-69
2023/07/08 05:37:34;;;;;;;7.75;5.53;;;;;;;18.76;69.66;101350.44;5035829;28;20040;-68
2023/07/08 05:40:02;;;;;;;6.03;5.18;;;;;;;18.91;68.55;101361.88;5027435;28;20029;-67
2023/07/08 05:42:28;;;;;;;8.38;5.95;;;;;;;18.97;68.63;101364.09;5034641;28;20025;-70
2023/07/08 05:44:54;;;;;;;7.40;5.88;;;;;;;19.09;68.26;101354.19;5025911;28;20037;-72
2023/07/08 05:47:21;;;;;;;7.03;5.90;;;;;;;19.23;67.77;101348.56;5032133;28;20081;-68
2023/07/08 05:49:46;;;;;;;6.50;5.70;;;;;;;19.37;66.81;101350.16;5031733;28;20535;-71
2023/07/08 05:52:12;;;;;;;8.68;6.10;;;;;;;19.47;66.64;101347.56;5044743;28;20454;-70
2023/07/08 05:54:38;;;;;;;7.38;6.18;;;;;;;19.57;66.42;101340.47;5037214;28;20494;-70
2023/07/08 05:57:04;;;;;;;7.78;6.30;;;;;;;19.70;65.48;101346.63;5038394;28;20025;-69
2023/07/08 05:59:33;;;;;;;7.07;6.47;;;;;;;19.83;66.12;101346.47;5035674;28;20036;-71
2023/07/08 06:02:02;;;;;;;8.52;6.75;;;;;;;20.04;64.86;101360.06;5038850;28;20451;-66
2023/07/08 06:04:31;;;;;;;8.68;7.00;;;;;;;20.15;64.01;101354.63;5032983;28;20028;-70
2023/07/08 06:06:57;;;;;;;8.90;7.05;;;;;;;20.37;63.04;101357.25;5032959;28;20148;-72
2023/07/08 06:09:22;;;;;;;7.75;6.43;;;;;;;20.55;62.40;101349.47;5031815;28;20120;-68
2023/07/08 06:11:47;;;;;;;8.65;6.55;;;;;;;20.82;61.57;101361.63;5035350;28;20353;-70
2023/07/08 06:14:13;;;;;;;8.00;6.00;;;;;;;21.06;61.38;101361.34;5025106;28;20033;-71
2023/07/08 06:16:38;;;;;;;8.63;7.07;;;;;;;21.28;59.30;101361.19;5034911;28;20025;-68
2023/07/08 06:19:04;;;;;;;8.63;6.50;;;;;;;21.41;59.07;101366.41;5023836;28;20102;-69
2023/07/08 06:21:29;;;;;;;9.60;6.18;;;;;;;21.73;58.61;101355.41;5030641;28;20235;-68
2023/07/08 06:23:55;;;;;;;7.57;6.05;;;;;;;21.99;57.53;101363.06;5026898;28;20287;-69
2023/07/08 06:26:20;;;;;;;8.43;5.45;;;;;;;22.19;56.43;101370.22;5036469;28;20041;-71
2023/07/08 06:28:45;;;;;;;8.57;5.63;;;;;;;22.30;55.47;101361.97;5030830;28;20056;-70
2023/07/08 06:31:11;;;;;;;6.57;5.43;;;;;;;22.52;53.93;101359.97;5032767;28;20396;-71
2023/07/08 06:33:36;;;;;;;8.48;5.63;;;;;;;22.66;54.65;101366.81;5032712;28;20467;-72
2023/07/08 06:36:02;;;;;;;6.22;5.10;;;;;;;22.84;53.38;101365.94;5027407;28;20534;-70
2023/07/08 06:38:27;;;;;;;7.38;5.05;;;;;;;23.06;52.47;101367.50;5039750;28;20123;-70
2023/07/08 06:40:53;;;;;;;8.35;5.55;;;;;;;23.27;53.07;101380.03;5043359;28;20301;-71
2023/07/08 06:43:18;;;;;;;8.13;5.78;;;;;;;23.46;51.49;101373.69;5039499;28;20044;-74
2023/07/08 06:45:44;;;;;;;9.73;5.93;;;;;;;23.50;50.05;101361.53;5039612;28;20083;-72
2023/07/08 06:48:09;;;;;;;7.55;5.85;;;;;;;23.63;49.83;101370.19;5031912;28;20211;-72
2023/07/08 06:50:35;;;;;;;9.10;6.03;;;;;;;23.70;49.43;101365.03;5035776;28;20036;-67
2023/07/08 06:53:00;;;;;;;11.45;5.60;;;;;;;23.76;49.68;101372.59;5039523;28;20025;-71
2023/07/08 06:55:25;;;;;;;7.55;5.45;;;;;;;23.84;50.62;101359.94;5039203;28;20025;-71
2023/07/08 06:57:51;;;;;;;6.70;5.63;;;;;;;24.01;49.96;101365.56;5037469;28;20037;-70
2023/07/08 07:00:17;;;;;;;9.65;6.03;;;;;;;24.23;49.71;101365.13;5037933;28;20029;-73
2023/07/08 07:02:43;;;;;;;6.93;6.13;;;;;;;24.34;49.29;101358.63;5031319;28;20488;-68
2023/07/08 07:05:08;;;;;;;5.93;5.10;;;;;;;24.61;49.34;101360.41;5038207;28;20059;-71
2023/07/08 07:07:34;;;;;;;10.05;6.00;;;;;;;24.73;48.35;101359.16;5028579;28;20022;-72
2023/07/08 07:10:03;;;;;;;9.27;5.00;;;;;;;24.96;48.07;101356.78;5032182;28;20025;-68
2023/07/08 07:12:28;;;;;;;8.77;5.30;;;;;;;25.14;46.66;101350.47;5032709;28;20187;-71
2023/07/08 07:14:54;;;;;;;6.72;5.00;;;;;;;25.38;46.33;101349.75;5043565;28;20120;-70
2023/07/08 07:17:24;;;;;;;8.35;5.28;;;;;;;25.67;46.66;101360.28;5037007;28;20032;-72
2023/07/08 07:19:49;;;;;;;7.15;5.55;;;;;;;25.77;45.58;101361.03;5025987;28;20396;-69
2023/07/08 07:22:15;;;;;;;8.32;6.13;;;;;;;25.99;45.12;101349.50;5025648;28;20036;-71
2023/07/08 07:24:41;;;;;;;6.68;4.80;;;;;;;26.34;45.40;101361.19;5030509;28;20035;-71
2023/07/08 07:27:08;;;;;;;7.28;5.50;;;;;;;26.61;44.15;101356.47;5040724;28;20017;-69
2023/07/08 07:29:47;;;;;;;7.90;5.32;;;;;;;26.61;43.58;101362.78;5034772;28;20029;-69
2023/07/08 07:32:13;;;;;;;8.45;5.47;;;;;;;26.91;44.15;101366.69;5025756;28;20091;-71
2023/07/08 07:34:39;;;;;;;6.97;5.35;;;;;;;27.47;42.28;101356.69;5044975;28;20297;-69
2023/07/08 07:37:06;;;;;;;7.05;4.97;;;;;;;27.93;40.96;101361.50;5026312;28;20042;-70
2023/07/08 07:39:31;;;;;;;6.05;4.85;;;;;;;28.44;40.90;101361.88;5026094;28;20029;-70
2023/07/08 07:41:56;;;;;;;7.43;5.60;;;;;;;28.88;39.30;101367.47;5025844;28;20448;-71
2023/07/08 07:44:22;;;;;;;8.23;6.20;;;;;;;29.01;37.68;101356.78;5032538;28;20025;-71
2023/07/08 07:46:47;;;;;;;12.52;5.72;;;;;;;29.28;37.65;101369.00;5029064;28;20087;-71
2023/07/08 07:49:13;;;;;;;8.82;5.93;;;;;;;29.66;37.36;101365.34;5032121;28;20033;-68
2023/07/08 07:51:38;;;;;;;7.03;5.78;;;;;;;29.95;36.20;101359.81;5045703;28;20045;-69
2023/07/08 07:54:04;;;;;;;8.55;5.97;;;;;;;30.49;36.42;101362.13;5039722;28;20347;-70
2023/07/08 07:56:32;;;;;;;5.78;5.20;;;;;;;31.06;35.50;101364.94;5054260;28;20044;-68
2023/07/08 07:58:58;;;;;;;6.90;5.35;;;;;;;31.47;34.31;101365.88;5038725;28;20472;-68
2023/07/08 08:01:23;;;;;;;5.57;5.07;;;;;;;31.89;33.71;101363.13;5040357;28;20029;-70
2023/07/08 08:03:51;;;;;;;6.82;5.45;;;;;;;32.40;32.91;101365.47;5028086;28;20613;-73
2023/07/08 08:06:17;;;;;;;9.38;5.38;;;;;;;32.67;32.50;101361.66;5034289;28;20021;-71
2023/07/08 08:08:44;;;;;;;8.27;5.97;;;;;;;32.93;31.73;101358.06;5036249;28;20116;-72
2023/07/08 08:11:09;;;;;;;7.30;6.03;;;;;;;33.09;31.16;101359.53;5040000;28;20025;-71
2023/07/08 08:13:34;;;;;;;8.93;5.97;;;;;;;33.65;30.59;101367.31;5034806;28;20025;-72
2023/07/08 08:16:02;;;;;;;6.82;5.85;;;;;;;33.97;30.04;101366.56;5041178;28;20037;-68
2023/07/08 08:18:27;;;;;;;7.70;6.10;;;;;;;34.11;30.13;101370.94;5035107;28;20648;-69
2023/07/08 08:20:53;;;;;;;10.40;6.18;;;;;;;34.40;28.87;101369.47;5036965;28;20032;-70
2023/07/08 08:23:18;;;;;;;8.00;5.90;;;;;;;34.41;27.47;101368.44;5032925;28;20044;-72
2023/07/08 08:25:44;;;;;;;8.55;5.90;;;;;;;34.63;27.39;101367.00;5032750;28;20060;-68
2023/07/08 08:28:09;;;;;;;7.07;6.03;;;;;;;35.29;27.99;101379.44;5041292;28;20033;-68
2023/07/08 08:30:35;;;;;;;6.97;6.22;;;;;;;35.96;26.47;101379.53;5031877;28;20112;-71
2023/07/08 08:33:03;;;;;;;7.97;6.53;;;;;;;36.00;26.11;101385.47;5024983;28;20037;-68
2023/07/08 08:35:29;;;;;;;8.00;6.30;;;;;;;36.42;25.53;101375.28;5037535;28;20075;-71
2023/07/08 08:37:54;;;;;;;8.02;6.43;;;;;;;36.56;25.20;101387.03;5033002;28;20025;-69
2023/07/08 08:40:20;;;;;;;8.93;6.93;;;;;;;36.88;24.50;101390.34;5023940;28;20199;-69
2023/07/08 08:43:05;;;;;;;7.30;6.18;;;;;;;37.04;25.66;101392.44;5024406;28;20160;-69
2023/07/08 08:45:38;;;;;;;8.50;6.32;;;;;;;37.53;24.14;101393.03;5024403;28;20059;-67
2023/07/08 08:48:10;;;;;;;9.05;6.20;;;;;;;38.00;23.91;101378.19;5027270;28;20047;-68
2023/07/08 08:50:49;;;;;;;8.48;6.72;;;;;;;38.78;23.11;101384.97;5023846;28;20040;-72
2023/07/08 08:53:17;;;;;;;10.60;7.05;;;;;;;38.99;22.56;101387.00;5038182;28;20218;-71
2023/07/08 08:55:43;;;;;;;8.32;6.18;;;;;;;39.17;22.44;101391.47;5039868;28;20033;-68
2023/07/08 08:58:25;;;;;;;8.25;6.30;;;;;;;39.65;22.04;101392.69;5025017;28;20108;-70
2023/07/08 09:00:59;;;;;;;9.45;7.22;;;;;;;40.29;22.14;101409.69;5023697;28;20037;-70
2023/07/08 09:03:32;;;;;;;10.27;6.55;;;;;;;40.36;21.41;101403.91;5028439;28;20474;-70
2023/07/08 09:05:59;;;;;;;8.13;6.70;;;;;;;40.86;20.10;101399.94;5037912;28;20108;-71
2023/07/08 09:08:35;;;;;;;7.82;6.30;;;;;;;40.57;20.68;101400.22;5028053;28;20045;-68
2023/07/08 09:11:23;;;;;;;7.75;6.40;;;;;;;41.16;21.03;101398.50;5034893;28;20033;-67
2023/07/08 09:13:52;;;;;;;7.03;6.20;;;;;;;41.40;20.36;101396.16;5024144;28;20036;-70
2023/07/08 09:16:33;;;;;;;7.75;6.40;;;;;;;42.07;20.77;101388.91;5029297;28;20040;-70
2023/07/08 09:19:13;;;;;;;9.77;6.82;;;;;;;41.94;19.08;101391.13;5032058;28;20080;-68
2023/07/08 09:21:49;;;;;;;8.60;6.93;;;;;;;42.42;19.17;101380.59;5034953;28;20556;-70
2023/07/08 09:24:48;;;;;;;8.85;6.90;;;;;;;42.52;18.97;101379.78;5026119;28;20022;-70
2023/07/08 09:27:14;;;;;;;8.07;6.68;;;;;;;42.05;18.03;101381.63;5030764;28;20083;-70
2023/07/08 09:29:39;;;;;;;7.35;6.25;;;;;;;42.52;19.14;101391.81;5033710;28;20062;-67
2023/07/08 09:32:26;;;;;;;8.45;6.63;;;;;;;43.47;18.95;101381.97;5035608;28;20041;-69
2023/07/08 09:34:55;;;;;;;7.35;6.53;;;;;;;43.56;17.19;101396.22;5023440;28;20033;-69
2023/07/08 09:37:20;;;;;;;8.35;7.15;;;;;;;43.36;16.38;101383.09;5022774;28;20262;-68
2023/07/08 09:39:46;;;;;;;7.10;6.40;;;;;;;43.54;16.61;101373.25;5029783;28;20025;-70
2023/07/08 09:42:14;;;;;;;9.10;7.13;;;;;;;43.18;16.37;101364.94;5026762;28;20032;-67
2023/07/08 09:44:40;;;;;;;9.10;7.05;;;;;;;43.32;16.35;101365.19;5029520;28;20025;-67
2023/07/08 09:47:24;;;;;;;8.07;6.60;;;;;;;44.02;17.40;101368.00;5023303;28;20189;-70
2023/07/08 09:49:52;;;;;;;8.73;6.68;;;;;;;43.43;17.37;101376.06;5022846;28;20079;-72
2023/07/08 09:52:17;;;;;;;9.15;7.15;;;;;;;43.50;16.88;101371.03;5028993;28;20021;-71
2023/07/08 09:54:45;;;;;;;7.80;7.00;;;;;;;43.46;17.54;101372.72;5031143;28;20086;-69
2023/07/08 09:57:21;;;;;;;8.80;6.07;;;;;;;43.18;17.32;101367.72;5037316;28;20419;-70
2023/07/08 09:59:52;;;;;;;8.80;6.40;;;;;;;43.58;16.55;101379.97;5040251;28;20021;-67
2023/07/08 10:02:40;;;;;;;7.40;6.45;;;;;;;44.87;16.95;101373.28;5035894;28;20065;-70
2023/07/08 10:05:22;;;;;;;9.93;6.40;;;;;;;44.88;16.63;101370.16;5029696;28;20078;-68
2023/07/08 10:07:53;;;;;;;8.65;7.30;;;;;;;44.26;16.65;101374.59;5034053;28;20512;-67
2023/07/08 10:10:26;;;;;;;9.15;6.95;;;;;;;44.06;17.32;101369.09;5034604;28;20032;-67
2023/07/08 10:12:57;;;;;;;9.48;6.65;;;;;;;44.22;17.10;101373.47;5034034;28;20033;-70
2023/07/08 10:15:39;;;;;;;9.10;7.40;;;;;;;44.41;16.72;101377.28;5023032;28;20021;-69
2023/07/08 10:18:07;;;;;;;8.20;6.80;;;;;;;44.73;15.72;101375.91;5029142;28;20037;-69
2023/07/08 10:20:46;;;;;;;9.07;7.45;;;;;;;44.89;16.05;101371.00;5034821;28;20024;-68
2023/07/08 10:23:30;;;;;;;8.80;7.43;;;;;;;44.88;16.27;101374.94;5034852;28;20033;-68
2023/07/08 10:26:11;;;;;;;8.15;7.18;;;;;;;45.29;16.24;101374.56;5047265;28;20553;-71
2023/07/08 10:28:48;;;;;;;8.32;6.57;;;;;;;45.12;15.88;101366.59;5022702;28;20025;-68
2023/07/08 10:31:31;;;;;;;9.85;7.28;;;;;;;45.59;15.84;101367.75;5023090;28;20060;-70
2023/07/08 10:34:18;;;;;;;8.43;6.72;;;;;;;45.98;15.49;101372.28;5023864;28;20084;-69
2023/07/08 10:37:09;;;;;;;8.23;6.70;;;;;;;46.48;14.27;101378.28;5032384;28;20033;-67
2023/07/08 10:40:02;;;;;;;9.75;6.35;;;;;;;47.06;14.62;101378.72;5038108;28;20043;-72
2023/07/08 10:43:06;;;;;;;7.82;6.82;;;;;;;47.97;13.95;101385.59;5027853;28;20053;-68
2023/07/08 10:45:53;;;;;;;8.10;7.18;;;;;;;47.48;13.12;101384.38;5022220;28;20416;-69
2023/07/08 10:48:36;;;;;;;7.50;6.63;;;;;;;47.96;13.75;101383.94;5033636;28;20033;-68
2023/07/08 10:51:16;;;;;;;10.55;7.65;;;;;;;47.26;13.78;101388.75;5028319;28;20022;-69
2023/07/08 10:54:03;;;;;;;8.40;7.18;;;;;;;46.67;13.42;101390.41;5030961;28;20124;-72
2023/07/08 10:56:51;;;;;;;7.63;6.72;;;;;;;47.08;13.78;101392.50;5035100;28;20037;-70
2023/07/08 10:59:36;;;;;;;7.38;6.43;;;;;;;47.45;13.29;101387.81;5032191;28;20040;-70
2023/07/08 11:02:20;;;;;;;8.45;6.80;;;;;;;47.36;13.27;101390.53;5027965;28;20036;-71
2023/07/08 11:04:45;;;;;;;9.00;7.15;;;;;;;46.79;12.87;101378.66;5024715;28;20180;-69
2023/07/08 11:07:35;;;;;;;8.07;6.50;;;;;;;47.01;12.74;101387.25;5021882;28;20108;-68
2023/07/08 11:10:16;;;;;;;7.70;6.90;;;;;;;46.62;13.46;101373.59;5024632;28;20296;-67
2023/07/08 11:13:02;;;;;;;8.13;6.65;;;;;;;47.67;13.77;101373.88;5039523;28;20079;-70
2023/07/08 11:15:40;;;;;;;8.48;6.80;;;;;;;46.79;12.16;101379.47;5029128;28;20043;-70
2023/07/08 11:18:46;;;;;;;8.68;6.80;;;;;;;47.35;12.78;101381.25;5021480;28;20071;-69
2023/07/08 11:21:58;;;;;;;7.95;6.70;;;;;;;47.31;12.74;101382.19;5022675;28;20021;-69
2023/07/08 11:24:50;;;;;;;8.07;7.15;;;;;;;48.08;12.85;101382.25;4983640;28;20141;-69
2023/07/08 11:27:33;;;;;;;8.05;6.65;;;;;;;48.46;12.89;101375.47;4982589;28;20026;-71
2023/07/08 11:30:29;;;;;;;8.48;7.50;;;;;;;48.38;12.42;101377.84;4964756;28;20126;-69
2023/07/08 11:33:05;;;;;;;7.47;6.75;;;;;;;48.31;12.34;101377.47;4977531;28;20173;-70
2023/07/08 11:35:33;;;;;;;8.70;6.43;;;;;;;47.61;12.42;101372.25;4980868;28;20588;-67